sensor_id;sensor_type;location;lat;lon;timestamp;P1;durP1;ratioP1;P2;durP2;ratioP2
74849;SDS011;63397;47.480;19.238;2024-02-26T00:02:11;12.13;;;6.10;;
74849;SDS011;63397;47.480;19.238;2024-02-26T00:05:14;16.73;;;5.40;;
74849;SDS011;63397;47.480;19.238;2024-02-26T00:08:16;10.93;;;4.90;;
74849;SDS011;63397;47.480;19.238;2024-02-26T00:11:18;15.82;;;5.57;;
74849;SDS011;63397;47.480;19.238;2024-02-26T00:14:20;12.88;;;6.75;;
74849;SDS011;63397;47.480;19.238;2024-02-26T00:17:23;11.18;;;5.38;;
74849;SDS011;63397;47.480;19.238;2024-02-26T00:20:26;12.40;;;4.87;;
74849;SDS011;63397;47.480;19.238;2024-02-26T00:23:28;18.02;;;6.05;;
74849;SDS011;63397;47.480;19.238;2024-02-26T00:26:31;17.23;;;5.50;;
74849;SDS011;63397;47.480;19.238;2024-02-26T00:29:33;13.77;;;6.18;;
74849;SDS011;63397;47.480;19.238;2024-02-26T00:32:35;10.77;;;4.72;;
74849;SDS011;63397;47.480;19.238;2024-02-26T00:35:38;14.17;;;5.40;;
74849;SDS011;63397;47.480;19.238;2024-02-26T00:38:40;11.55;;;4.85;;
74849;SDS011;63397;47.480;19.238;2024-02-26T00:41:43;10.23;;;4.93;;
74849;SDS011;63397;47.480;19.238;2024-02-26T00:44:45;11.98;;;4.80;;
74849;SDS011;63397;47.480;19.238;2024-02-26T00:47:47;12.85;;;4.95;;
74849;SDS011;63397;47.480;19.238;2024-02-26T00:50:51;13.90;;;5.33;;
74849;SDS011;63397;47.480;19.238;2024-02-26T00:53:54;12.25;;;5.65;;
74849;SDS011;63397;47.480;19.238;2024-02-26T00:56:56;13.98;;;5.43;;
74849;SDS011;63397;47.480;19.238;2024-02-26T00:59:58;12.18;;;5.10;;
74849;SDS011;63397;47.480;19.238;2024-02-26T01:03:01;12.40;;;4.93;;
74849;SDS011;63397;47.480;19.238;2024-02-26T01:06:04;11.30;;;4.70;;
74849;SDS011;63397;47.480;19.238;2024-02-26T01:09:06;11.82;;;5.30;;
74849;SDS011;63397;47.480;19.238;2024-02-26T01:12:10;13.63;;;6.07;;
74849;SDS011;63397;47.480;19.238;2024-02-26T01:15:12;10.98;;;5.53;;
74849;SDS011;63397;47.480;19.238;2024-02-26T01:18:15;14.68;;;5.90;;
74849;SDS011;63397;47.480;19.238;2024-02-26T01:21:18;12.17;;;5.67;;
74849;SDS011;63397;47.480;19.238;2024-02-26T01:24:20;16.65;;;6.10;;
74849;SDS011;63397;47.480;19.238;2024-02-26T01:27:23;13.85;;;5.97;;
74849;SDS011;63397;47.480;19.238;2024-02-26T01:30:28;14.60;;;5.75;;
74849;SDS011;63397;47.480;19.238;2024-02-26T01:33:30;15.52;;;6.20;;
74849;SDS011;63397;47.480;19.238;2024-02-26T01:36:33;16.00;;;6.20;;
74849;SDS011;63397;47.480;19.238;2024-02-26T01:39:36;13.95;;;5.45;;
74849;SDS011;63397;47.480;19.238;2024-02-26T01:42:38;12.13;;;5.82;;
74849;SDS011;63397;47.480;19.238;2024-02-26T01:45:41;11.30;;;4.97;;
74849;SDS011;63397;47.480;19.238;2024-02-26T01:48:43;12.95;;;5.43;;
74849;SDS011;63397;47.480;19.238;2024-02-26T01:51:47;12.43;;;4.90;;
74849;SDS011;63397;47.480;19.238;2024-02-26T01:54:50;12.55;;;5.10;;
74849;SDS011;63397;47.480;19.238;2024-02-26T01:57:52;13.80;;;5.60;;
74849;SDS011;63397;47.480;19.238;2024-02-26T02:00:56;13.00;;;5.75;;
74849;SDS011;63397;47.480;19.238;2024-02-26T02:03:59;12.25;;;5.68;;
74849;SDS011;63397;47.480;19.238;2024-02-26T02:07:01;11.37;;;5.43;;
74849;SDS011;63397;47.480;19.238;2024-02-26T02:10:04;10.60;;;5.00;;
74849;SDS011;63397;47.480;19.238;2024-02-26T02:13:07;11.02;;;5.90;;
74849;SDS011;63397;47.480;19.238;2024-02-26T02:16:09;14.43;;;5.10;;
74849;SDS011;63397;47.480;19.238;2024-02-26T02:19:11;14.50;;;5.57;;
74849;SDS011;63397;47.480;19.238;2024-02-26T02:22:13;14.00;;;4.53;;
74849;SDS011;63397;47.480;19.238;2024-02-26T02:25:16;14.30;;;5.68;;
74849;SDS011;63397;47.480;19.238;2024-02-26T02:28:18;14.68;;;5.82;;
74849;SDS011;63397;47.480;19.238;2024-02-26T02:31:21;22.13;;;8.70;;
74849;SDS011;63397;47.480;19.238;2024-02-26T02:34:23;16.52;;;8.30;;
74849;SDS011;63397;47.480;19.238;2024-02-26T02:37:26;18.67;;;7.53;;
74849;SDS011;63397;47.480;19.238;2024-02-26T02:40:28;16.20;;;7.43;;
74849;SDS011;63397;47.480;19.238;2024-02-26T02:43:30;17.55;;;7.88;;
74849;SDS011;63397;47.480;19.238;2024-02-26T02:46:32;19.70;;;7.30;;
74849;SDS011;63397;47.480;19.238;2024-02-26T02:49:37;22.20;;;8.35;;
74849;SDS011;63397;47.480;19.238;2024-02-26T02:52:39;19.93;;;8.03;;
74849;SDS011;63397;47.480;19.238;2024-02-26T02:55:41;20.83;;;8.07;;
74849;SDS011;63397;47.480;19.238;2024-02-26T02:58:44;18.10;;;7.50;;
74849;SDS011;63397;47.480;19.238;2024-02-26T03:01:46;20.20;;;6.68;;
74849;SDS011;63397;47.480;19.238;2024-02-26T03:04:48;14.80;;;5.50;;
74849;SDS011;63397;47.480;19.238;2024-02-26T03:07:50;11.67;;;5.30;;
74849;SDS011;63397;47.480;19.238;2024-02-26T03:10:53;11.73;;;4.97;;
74849;SDS011;63397;47.480;19.238;2024-02-26T03:13:55;16.50;;;4.95;;
74849;SDS011;63397;47.480;19.238;2024-02-26T03:16:57;14.13;;;5.03;;
74849;SDS011;63397;47.480;19.238;2024-02-26T03:20:00;13.80;;;5.95;;
74849;SDS011;63397;47.480;19.238;2024-02-26T03:23:02;14.53;;;5.17;;
74849;SDS011;63397;47.480;19.238;2024-02-26T03:26:05;16.15;;;5.95;;
74849;SDS011;63397;47.480;19.238;2024-02-26T03:29:07;13.93;;;6.00;;
74849;SDS011;63397;47.480;19.238;2024-02-26T03:32:09;15.35;;;6.18;;
74849;SDS011;63397;47.480;19.238;2024-02-26T03:35:12;14.57;;;6.15;;
74849;SDS011;63397;47.480;19.238;2024-02-26T03:38:14;12.40;;;5.50;;
74849;SDS011;63397;47.480;19.238;2024-02-26T03:41:16;12.23;;;4.82;;
74849;SDS011;63397;47.480;19.238;2024-02-26T03:44:18;14.15;;;5.97;;
74849;SDS011;63397;47.480;19.238;2024-02-26T03:47:21;12.73;;;5.60;;
74849;SDS011;63397;47.480;19.238;2024-02-26T03:50:23;14.68;;;5.70;;
74849;SDS011;63397;47.480;19.238;2024-02-26T03:53:25;11.63;;;5.03;;
74849;SDS011;63397;47.480;19.238;2024-02-26T03:56:27;12.30;;;5.35;;
74849;SDS011;63397;47.480;19.238;2024-02-26T03:59:30;14.02;;;5.32;;
74849;SDS011;63397;47.480;19.238;2024-02-26T04:02:32;8.88;;;4.80;;
74849;SDS011;63397;47.480;19.238;2024-02-26T04:05:34;13.05;;;5.57;;
74849;SDS011;63397;47.480;19.238;2024-02-26T04:08:37;12.93;;;4.60;;
74849;SDS011;63397;47.480;19.238;2024-02-26T04:11:39;16.63;;;6.75;;
74849;SDS011;63397;47.480;19.238;2024-02-26T04:14:42;15.85;;;5.88;;
74849;SDS011;63397;47.480;19.238;2024-02-26T04:17:44;11.52;;;5.22;;
74849;SDS011;63397;47.480;19.238;2024-02-26T04:20:47;14.93;;;5.88;;
74849;SDS011;63397;47.480;19.238;2024-02-26T04:23:49;21.27;;;6.20;;
74849;SDS011;63397;47.480;19.238;2024-02-26T04:26:52;20.77;;;5.55;;
74849;SDS011;63397;47.480;19.238;2024-02-26T04:29:54;16.50;;;7.47;;
74849;SDS011;63397;47.480;19.238;2024-02-26T04:32:57;13.60;;;5.55;;
74849;SDS011;63397;47.480;19.238;2024-02-26T04:35:59;13.98;;;6.10;;
74849;SDS011;63397;47.480;19.238;2024-02-26T04:39:02;16.93;;;6.50;;
74849;SDS011;63397;47.480;19.238;2024-02-26T04:42:04;16.70;;;7.18;;
74849;SDS011;63397;47.480;19.238;2024-02-26T04:45:07;17.05;;;7.18;;
74849;SDS011;63397;47.480;19.238;2024-02-26T04:48:10;17.08;;;6.85;;
74849;SDS011;63397;47.480;19.238;2024-02-26T04:51:13;13.38;;;5.90;;
74849;SDS011;63397;47.480;19.238;2024-02-26T04:54:15;13.73;;;6.03;;
74849;SDS011;63397;47.480;19.238;2024-02-26T04:57:17;14.65;;;7.03;;
74849;SDS011;63397;47.480;19.238;2024-02-26T05:00:20;18.92;;;6.20;;
74849;SDS011;63397;47.480;19.238;2024-02-26T05:03:23;19.05;;;6.00;;
74849;SDS011;63397;47.480;19.238;2024-02-26T05:06:25;15.70;;;6.82;;
74849;SDS011;63397;47.480;19.238;2024-02-26T05:09:28;17.53;;;6.63;;
74849;SDS011;63397;47.480;19.238;2024-02-26T05:12:30;18.10;;;6.95;;
74849;SDS011;63397;47.480;19.238;2024-02-26T05:15:32;14.43;;;5.72;;
74849;SDS011;63397;47.480;19.238;2024-02-26T05:18:34;16.20;;;5.82;;
74849;SDS011;63397;47.480;19.238;2024-02-26T05:21:37;10.23;;;4.90;;
74849;SDS011;63397;47.480;19.238;2024-02-26T05:24:39;21.27;;;5.63;;
74849;SDS011;63397;47.480;19.238;2024-02-26T05:27:42;14.65;;;6.13;;
74849;SDS011;63397;47.480;19.238;2024-02-26T05:30:45;16.58;;;6.88;;
74849;SDS011;63397;47.480;19.238;2024-02-26T05:33:47;16.38;;;5.75;;
74849;SDS011;63397;47.480;19.238;2024-02-26T05:36:50;17.60;;;6.55;;
74849;SDS011;63397;47.480;19.238;2024-02-26T05:39:52;16.70;;;6.93;;
74849;SDS011;63397;47.480;19.238;2024-02-26T05:42:55;15.40;;;6.35;;
74849;SDS011;63397;47.480;19.238;2024-02-26T05:45:57;14.00;;;5.43;;
74849;SDS011;63397;47.480;19.238;2024-02-26T05:49:02;12.55;;;5.90;;
74849;SDS011;63397;47.480;19.238;2024-02-26T05:52:05;14.40;;;6.10;;
74849;SDS011;63397;47.480;19.238;2024-02-26T05:55:08;17.30;;;5.00;;
74849;SDS011;63397;47.480;19.238;2024-02-26T05:58:10;12.30;;;5.15;;
74849;SDS011;63397;47.480;19.238;2024-02-26T06:01:12;13.95;;;5.15;;
74849;SDS011;63397;47.480;19.238;2024-02-26T06:04:14;15.25;;;6.28;;
74849;SDS011;63397;47.480;19.238;2024-02-26T06:07:17;15.85;;;5.35;;
74849;SDS011;63397;47.480;19.238;2024-02-26T06:10:19;14.93;;;5.43;;
74849;SDS011;63397;47.480;19.238;2024-02-26T06:13:25;13.65;;;5.95;;
74849;SDS011;63397;47.480;19.238;2024-02-26T06:16:28;14.05;;;6.50;;
74849;SDS011;63397;47.480;19.238;2024-02-26T06:19:30;11.73;;;5.30;;
74849;SDS011;63397;47.480;19.238;2024-02-26T06:22:33;15.70;;;5.60;;
74849;SDS011;63397;47.480;19.238;2024-02-26T06:25:35;13.10;;;4.77;;
74849;SDS011;63397;47.480;19.238;2024-02-26T06:28:37;10.40;;;5.13;;
74849;SDS011;63397;47.480;19.238;2024-02-26T06:31:43;18.88;;;6.90;;
74849;SDS011;63397;47.480;19.238;2024-02-26T06:34:45;15.27;;;5.70;;
74849;SDS011;63397;47.480;19.238;2024-02-26T06:37:51;15.27;;;6.72;;
74849;SDS011;63397;47.480;19.238;2024-02-26T06:40:57;17.07;;;7.47;;
74849;SDS011;63397;47.480;19.238;2024-02-26T06:44:00;15.25;;;6.53;;
74849;SDS011;63397;47.480;19.238;2024-02-26T06:47:05;13.15;;;6.22;;
74849;SDS011;63397;47.480;19.238;2024-02-26T06:50:08;13.55;;;6.82;;
74849;SDS011;63397;47.480;19.238;2024-02-26T06:53:13;15.18;;;5.68;;
74849;SDS011;63397;47.480;19.238;2024-02-26T06:56:16;16.40;;;6.40;;
74849;SDS011;63397;47.480;19.238;2024-02-26T06:59:18;15.43;;;6.68;;
74849;SDS011;63397;47.480;19.238;2024-02-26T07:02:22;17.95;;;6.93;;
74849;SDS011;63397;47.480;19.238;2024-02-26T07:05:24;17.75;;;6.90;;
74849;SDS011;63397;47.480;19.238;2024-02-26T07:08:26;15.52;;;7.05;;
74849;SDS011;63397;47.480;19.238;2024-02-26T07:11:29;13.17;;;5.47;;
74849;SDS011;63397;47.480;19.238;2024-02-26T07:14:32;15.80;;;6.63;;
74849;SDS011;63397;47.480;19.238;2024-02-26T07:17:35;16.45;;;6.88;;
74849;SDS011;63397;47.480;19.238;2024-02-26T07:20:39;15.02;;;6.32;;
74849;SDS011;63397;47.480;19.238;2024-02-26T07:23:42;14.88;;;6.72;;
74849;SDS011;63397;47.480;19.238;2024-02-26T07:26:46;14.70;;;5.73;;
74849;SDS011;63397;47.480;19.238;2024-02-26T07:29:49;14.07;;;6.05;;
74849;SDS011;63397;47.480;19.238;2024-02-26T07:32:52;16.02;;;7.28;;
74849;SDS011;63397;47.480;19.238;2024-02-26T07:35:54;16.98;;;6.93;;
74849;SDS011;63397;47.480;19.238;2024-02-26T07:39:01;15.15;;;7.38;;
74849;SDS011;63397;47.480;19.238;2024-02-26T07:42:04;13.77;;;6.60;;
74849;SDS011;63397;47.480;19.238;2024-02-26T07:45:07;16.25;;;6.57;;
74849;SDS011;63397;47.480;19.238;2024-02-26T07:48:09;16.42;;;7.20;;
74849;SDS011;63397;47.480;19.238;2024-02-26T07:51:14;14.93;;;5.75;;
74849;SDS011;63397;47.480;19.238;2024-02-26T07:54:16;18.60;;;8.00;;
74849;SDS011;63397;47.480;19.238;2024-02-26T07:57:19;15.07;;;6.90;;
74849;SDS011;63397;47.480;19.238;2024-02-26T08:00:23;16.08;;;6.82;;
74849;SDS011;63397;47.480;19.238;2024-02-26T08:03:25;15.95;;;6.50;;
74849;SDS011;63397;47.480;19.238;2024-02-26T08:06:28;14.15;;;6.53;;
74849;SDS011;63397;47.480;19.238;2024-02-26T08:09:30;17.23;;;7.50;;
74849;SDS011;63397;47.480;19.238;2024-02-26T08:12:33;17.93;;;7.17;;
74849;SDS011;63397;47.480;19.238;2024-02-26T08:15:36;15.15;;;6.78;;
74849;SDS011;63397;47.480;19.238;2024-02-26T08:18:42;17.17;;;8.13;;
74849;SDS011;63397;47.480;19.238;2024-02-26T08:21:44;16.55;;;7.38;;
74849;SDS011;63397;47.480;19.238;2024-02-26T08:24:46;12.68;;;7.00;;
74849;SDS011;63397;47.480;19.238;2024-02-26T08:27:49;17.90;;;8.23;;
74849;SDS011;63397;47.480;19.238;2024-02-26T08:30:51;18.13;;;8.25;;
74849;SDS011;63397;47.480;19.238;2024-02-26T08:33:54;20.23;;;8.60;;
74849;SDS011;63397;47.480;19.238;2024-02-26T08:36:58;20.73;;;7.90;;
74849;SDS011;63397;47.480;19.238;2024-02-26T08:40:04;20.02;;;9.05;;
74849;SDS011;63397;47.480;19.238;2024-02-26T08:43:12;21.27;;;8.90;;
74849;SDS011;63397;47.480;19.238;2024-02-26T08:46:14;21.38;;;8.93;;
74849;SDS011;63397;47.480;19.238;2024-02-26T08:49:17;25.08;;;9.43;;
74849;SDS011;63397;47.480;19.238;2024-02-26T08:52:20;23.98;;;10.50;;
74849;SDS011;63397;47.480;19.238;2024-02-26T08:55:23;25.48;;;9.25;;
74849;SDS011;63397;47.480;19.238;2024-02-26T08:58:27;21.03;;;9.03;;
74849;SDS011;63397;47.480;19.238;2024-02-26T09:01:31;17.17;;;8.32;;
74849;SDS011;63397;47.480;19.238;2024-02-26T09:04:33;21.83;;;10.13;;
74849;SDS011;63397;47.480;19.238;2024-02-26T09:07:38;23.35;;;9.95;;
74849;SDS011;63397;47.480;19.238;2024-02-26T09:10:43;22.13;;;9.90;;
74849;SDS011;63397;47.480;19.238;2024-02-26T09:13:47;21.23;;;9.27;;
74849;SDS011;63397;47.480;19.238;2024-02-26T09:16:50;23.10;;;10.48;;
74849;SDS011;63397;47.480;19.238;2024-02-26T09:19:56;27.05;;;11.77;;
74849;SDS011;63397;47.480;19.238;2024-02-26T09:22:58;25.17;;;10.35;;
74849;SDS011;63397;47.480;19.238;2024-02-26T09:26:01;20.77;;;9.10;;
74849;SDS011;63397;47.480;19.238;2024-02-26T09:29:03;22.87;;;10.97;;
74849;SDS011;63397;47.480;19.238;2024-02-26T09:32:06;22.35;;;9.25;;
74849;SDS011;63397;47.480;19.238;2024-02-26T09:35:08;22.73;;;9.85;;
74849;SDS011;63397;47.480;19.238;2024-02-26T09:38:11;22.67;;;10.18;;
74849;SDS011;63397;47.480;19.238;2024-02-26T09:41:16;21.55;;;9.40;;
74849;SDS011;63397;47.480;19.238;2024-02-26T09:44:21;29.40;;;10.73;;
74849;SDS011;63397;47.480;19.238;2024-02-26T09:47:23;25.88;;;9.77;;
74849;SDS011;63397;47.480;19.238;2024-02-26T09:50:27;22.67;;;10.25;;
74849;SDS011;63397;47.480;19.238;2024-02-26T09:53:30;23.38;;;9.93;;
74849;SDS011;63397;47.480;19.238;2024-02-26T09:56:38;21.30;;;10.40;;
74849;SDS011;63397;47.480;19.238;2024-02-26T09:59:59;20.20;;;10.33;;
74849;SDS011;63397;47.480;19.238;2024-02-26T10:03:06;21.88;;;9.70;;
74849;SDS011;63397;47.480;19.238;2024-02-26T10:06:11;22.75;;;10.35;;
74849;SDS011;63397;47.480;19.238;2024-02-26T10:09:14;18.73;;;9.95;;
74849;SDS011;63397;47.480;19.238;2024-02-26T10:12:20;22.67;;;9.38;;
74849;SDS011;63397;47.480;19.238;2024-02-26T10:15:23;21.93;;;8.67;;
74849;SDS011;63397;47.480;19.238;2024-02-26T10:18:25;20.05;;;9.73;;
74849;SDS011;63397;47.480;19.238;2024-02-26T10:21:31;19.45;;;9.27;;
74849;SDS011;63397;47.480;19.238;2024-02-26T10:24:33;17.95;;;8.52;;
74849;SDS011;63397;47.480;19.238;2024-02-26T10:27:42;20.73;;;9.43;;
74849;SDS011;63397;47.480;19.238;2024-02-26T10:30:47;21.43;;;9.30;;
74849;SDS011;63397;47.480;19.238;2024-02-26T10:33:49;19.80;;;9.10;;
74849;SDS011;63397;47.480;19.238;2024-02-26T10:36:53;21.17;;;8.95;;
74849;SDS011;63397;47.480;19.238;2024-02-26T10:39:56;18.73;;;8.38;;
74849;SDS011;63397;47.480;19.238;2024-02-26T10:43:01;20.58;;;8.65;;
74849;SDS011;63397;47.480;19.238;2024-02-26T10:46:04;17.73;;;7.93;;
74849;SDS011;63397;47.480;19.238;2024-02-26T10:49:12;17.77;;;8.45;;
74849;SDS011;63397;47.480;19.238;2024-02-26T10:52:20;18.73;;;8.02;;
74849;SDS011;63397;47.480;19.238;2024-02-26T10:55:27;16.15;;;7.53;;
74849;SDS011;63397;47.480;19.238;2024-02-26T10:58:33;17.55;;;7.63;;
74849;SDS011;63397;47.480;19.238;2024-02-26T11:01:36;14.60;;;6.97;;
74849;SDS011;63397;47.480;19.238;2024-02-26T11:04:45;15.35;;;6.88;;
74849;SDS011;63397;47.480;19.238;2024-02-26T11:07:48;13.38;;;6.85;;
74849;SDS011;63397;47.480;19.238;2024-02-26T11:10:54;15.60;;;7.57;;
74849;SDS011;63397;47.480;19.238;2024-02-26T11:13:59;13.52;;;6.68;;
74849;SDS011;63397;47.480;19.238;2024-02-26T11:17:03;17.87;;;7.37;;
74849;SDS011;63397;47.480;19.238;2024-02-26T11:20:06;16.23;;;7.93;;
74849;SDS011;63397;47.480;19.238;2024-02-26T11:23:12;18.52;;;7.53;;
74849;SDS011;63397;47.480;19.238;2024-02-26T11:26:19;17.77;;;7.47;;
74849;SDS011;63397;47.480;19.238;2024-02-26T11:29:22;18.58;;;7.97;;
74849;SDS011;63397;47.480;19.238;2024-02-26T11:32:29;13.30;;;7.20;;
74849;SDS011;63397;47.480;19.238;2024-02-26T11:35:33;15.07;;;7.82;;
74849;SDS011;63397;47.480;19.238;2024-02-26T11:38:35;15.73;;;7.20;;
74849;SDS011;63397;47.480;19.238;2024-02-26T11:41:38;14.48;;;6.00;;
74849;SDS011;63397;47.480;19.238;2024-02-26T11:44:40;11.45;;;5.30;;
74849;SDS011;63397;47.480;19.238;2024-02-26T11:47:44;9.23;;;4.90;;
74849;SDS011;63397;47.480;19.238;2024-02-26T11:50:58;13.43;;;5.70;;
74849;SDS011;63397;47.480;19.238;2024-02-26T11:54:03;11.90;;;5.72;;
74849;SDS011;63397;47.480;19.238;2024-02-26T11:57:19;13.57;;;5.68;;
74849;SDS011;63397;47.480;19.238;2024-02-26T12:00:22;14.18;;;5.68;;
74849;SDS011;63397;47.480;19.238;2024-02-26T12:03:28;12.97;;;6.07;;
74849;SDS011;63397;47.480;19.238;2024-02-26T12:06:30;9.02;;;4.63;;
74849;SDS011;63397;47.480;19.238;2024-02-26T12:09:40;13.25;;;5.32;;
74849;SDS011;63397;47.480;19.238;2024-02-26T12:12:46;14.38;;;7.28;;
74849;SDS011;63397;47.480;19.238;2024-02-26T12:15:57;10.88;;;4.97;;
74849;SDS011;63397;47.480;19.238;2024-02-26T12:19:06;9.07;;;4.57;;
74849;SDS011;63397;47.480;19.238;2024-02-26T12:22:14;13.40;;;6.13;;
74849;SDS011;63397;47.480;19.238;2024-02-26T12:25:20;9.95;;;4.88;;
74849;SDS011;63397;47.480;19.238;2024-02-26T12:28:27;9.45;;;5.22;;
74849;SDS011;63397;47.480;19.238;2024-02-26T12:31:32;11.38;;;5.03;;
74849;SDS011;63397;47.480;19.238;2024-02-26T12:34:35;10.40;;;4.97;;
74849;SDS011;63397;47.480;19.238;2024-02-26T12:37:38;8.75;;;4.57;;
74849;SDS011;63397;47.480;19.238;2024-02-26T12:40:45;10.60;;;4.80;;
74849;SDS011;63397;47.480;19.238;2024-02-26T12:43:49;11.38;;;4.80;;
74849;SDS011;63397;47.480;19.238;2024-02-26T12:47:01;9.35;;;4.90;;
74849;SDS011;63397;47.480;19.238;2024-02-26T12:50:05;11.87;;;5.00;;
74849;SDS011;63397;47.480;19.238;2024-02-26T12:53:11;9.15;;;4.75;;
74849;SDS011;63397;47.480;19.238;2024-02-26T12:56:13;8.35;;;4.30;;
74849;SDS011;63397;47.480;19.238;2024-02-26T12:59:16;8.75;;;4.50;;
74849;SDS011;63397;47.480;19.238;2024-02-26T13:02:18;11.13;;;5.30;;
74849;SDS011;63397;47.480;19.238;2024-02-26T13:05:25;8.07;;;4.47;;
74849;SDS011;63397;47.480;19.238;2024-02-26T13:08:28;8.57;;;4.25;;
74849;SDS011;63397;47.480;19.238;2024-02-26T13:11:30;8.63;;;4.90;;
74849;SDS011;63397;47.480;19.238;2024-02-26T13:14:36;9.50;;;5.13;;
74849;SDS011;63397;47.480;19.238;2024-02-26T13:17:38;10.38;;;4.85;;
74849;SDS011;63397;47.480;19.238;2024-02-26T13:20:40;9.83;;;5.50;;
74849;SDS011;63397;47.480;19.238;2024-02-26T13:23:49;9.05;;;5.07;;
74849;SDS011;63397;47.480;19.238;2024-02-26T13:26:55;11.60;;;5.82;;
74849;SDS011;63397;47.480;19.238;2024-02-26T13:30:04;9.60;;;5.45;;
74849;SDS011;63397;47.480;19.238;2024-02-26T13:33:08;8.85;;;5.15;;
74849;SDS011;63397;47.480;19.238;2024-02-26T13:36:11;10.27;;;5.10;;
74849;SDS011;63397;47.480;19.238;2024-02-26T13:39:26;10.30;;;5.60;;
74849;SDS011;63397;47.480;19.238;2024-02-26T13:42:29;10.32;;;6.13;;
74849;SDS011;63397;47.480;19.238;2024-02-26T13:45:36;10.35;;;5.57;;
74849;SDS011;63397;47.480;19.238;2024-02-26T13:48:42;12.27;;;5.85;;
74849;SDS011;63397;47.480;19.238;2024-02-26T13:51:44;10.23;;;5.50;;
74849;SDS011;63397;47.480;19.238;2024-02-26T13:54:47;10.75;;;5.72;;
74849;SDS011;63397;47.480;19.238;2024-02-26T13:57:49;12.27;;;6.57;;
74849;SDS011;63397;47.480;19.238;2024-02-26T14:00:53;12.02;;;6.18;;
74849;SDS011;63397;47.480;19.238;2024-02-26T14:03:56;11.48;;;6.00;;
74849;SDS011;63397;47.480;19.238;2024-02-26T14:06:59;11.17;;;6.10;;
74849;SDS011;63397;47.480;19.238;2024-02-26T14:10:02;10.52;;;5.90;;
74849;SDS011;63397;47.480;19.238;2024-02-26T14:13:05;12.30;;;6.47;;
74849;SDS011;63397;47.480;19.238;2024-02-26T14:16:07;11.68;;;6.03;;
74849;SDS011;63397;47.480;19.238;2024-02-26T14:19:10;13.20;;;6.55;;
74849;SDS011;63397;47.480;19.238;2024-02-26T14:22:16;13.07;;;6.70;;
74849;SDS011;63397;47.480;19.238;2024-02-26T14:25:19;15.88;;;7.28;;
74849;SDS011;63397;47.480;19.238;2024-02-26T14:28:22;14.57;;;7.35;;
74849;SDS011;63397;47.480;19.238;2024-02-26T14:31:36;13.98;;;7.18;;
74849;SDS011;63397;47.480;19.238;2024-02-26T14:34:39;13.88;;;6.65;;
74849;SDS011;63397;47.480;19.238;2024-02-26T14:37:41;17.27;;;7.30;;
74849;SDS011;63397;47.480;19.238;2024-02-26T14:40:47;16.55;;;6.75;;
74849;SDS011;63397;47.480;19.238;2024-02-26T14:43:49;14.60;;;6.78;;
74849;SDS011;63397;47.480;19.238;2024-02-26T14:46:52;15.43;;;8.35;;
74849;SDS011;63397;47.480;19.238;2024-02-26T14:49:54;14.68;;;7.28;;
74849;SDS011;63397;47.480;19.238;2024-02-26T14:52:56;16.60;;;8.47;;
74849;SDS011;63397;47.480;19.238;2024-02-26T14:56:00;16.20;;;7.82;;
74849;SDS011;63397;47.480;19.238;2024-02-26T14:59:02;20.25;;;8.57;;
74849;SDS011;63397;47.480;19.238;2024-02-26T15:02:05;14.95;;;7.15;;
74849;SDS011;63397;47.480;19.238;2024-02-26T15:05:07;16.90;;;7.97;;
74849;SDS011;63397;47.480;19.238;2024-02-26T15:08:12;14.00;;;7.33;;
74849;SDS011;63397;47.480;19.238;2024-02-26T15:11:19;15.45;;;8.00;;
74849;SDS011;63397;47.480;19.238;2024-02-26T15:14:21;17.80;;;8.00;;
74849;SDS011;63397;47.480;19.238;2024-02-26T15:17:27;16.77;;;8.27;;
74849;SDS011;63397;47.480;19.238;2024-02-26T15:20:34;16.08;;;7.28;;
74849;SDS011;63397;47.480;19.238;2024-02-26T15:23:37;17.13;;;8.17;;
74849;SDS011;63397;47.480;19.238;2024-02-26T15:26:39;18.15;;;8.18;;
74849;SDS011;63397;47.480;19.238;2024-02-26T15:29:42;16.10;;;8.07;;
74849;SDS011;63397;47.480;19.238;2024-02-26T15:32:44;17.63;;;8.18;;
74849;SDS011;63397;47.480;19.238;2024-02-26T15:35:47;18.63;;;8.45;;
74849;SDS011;63397;47.480;19.238;2024-02-26T15:38:49;18.23;;;8.70;;
74849;SDS011;63397;47.480;19.238;2024-02-26T15:41:52;20.77;;;9.13;;
74849;SDS011;63397;47.480;19.238;2024-02-26T15:44:54;20.08;;;9.40;;
74849;SDS011;63397;47.480;19.238;2024-02-26T15:47:57;24.58;;;9.60;;
74849;SDS011;63397;47.480;19.238;2024-02-26T15:51:00;22.00;;;10.02;;
74849;SDS011;63397;47.480;19.238;2024-02-26T15:54:02;19.27;;;9.83;;
74849;SDS011;63397;47.480;19.238;2024-02-26T15:57:05;20.73;;;10.13;;
74849;SDS011;63397;47.480;19.238;2024-02-26T16:00:07;22.38;;;10.02;;
74849;SDS011;63397;47.480;19.238;2024-02-26T16:03:15;20.17;;;9.82;;
74849;SDS011;63397;47.480;19.238;2024-02-26T16:06:22;22.15;;;10.30;;
74849;SDS011;63397;47.480;19.238;2024-02-26T16:09:27;23.33;;;9.90;;
74849;SDS011;63397;47.480;19.238;2024-02-26T16:15:42;24.60;;;10.63;;
74849;SDS011;63397;47.480;19.238;2024-02-26T16:18:45;25.45;;;11.02;;
74849;SDS011;63397;47.480;19.238;2024-02-26T16:21:47;22.15;;;10.35;;
74849;SDS011;63397;47.480;19.238;2024-02-26T16:24:50;23.97;;;9.50;;
74849;SDS011;63397;47.480;19.238;2024-02-26T16:27:52;22.65;;;10.55;;
74849;SDS011;63397;47.480;19.238;2024-02-26T16:30:54;19.92;;;9.57;;
74849;SDS011;63397;47.480;19.238;2024-02-26T16:33:56;23.60;;;10.77;;
74849;SDS011;63397;47.480;19.238;2024-02-26T16:36:59;24.58;;;11.95;;
74849;SDS011;63397;47.480;19.238;2024-02-26T16:40:05;26.40;;;12.20;;
74849;SDS011;63397;47.480;19.238;2024-02-26T16:43:10;26.63;;;11.65;;
74849;SDS011;63397;47.480;19.238;2024-02-26T16:46:13;25.65;;;12.48;;
74849;SDS011;63397;47.480;19.238;2024-02-26T16:49:17;29.90;;;12.18;;
74849;SDS011;63397;47.480;19.238;2024-02-26T16:52:20;29.17;;;12.73;;
74849;SDS011;63397;47.480;19.238;2024-02-26T16:55:24;27.43;;;11.93;;
74849;SDS011;63397;47.480;19.238;2024-02-26T16:58:29;26.85;;;11.32;;
74849;SDS011;63397;47.480;19.238;2024-02-26T17:01:31;28.58;;;12.00;;
74849;SDS011;63397;47.480;19.238;2024-02-26T17:04:34;30.13;;;13.88;;
74849;SDS011;63397;47.480;19.238;2024-02-26T17:07:37;28.77;;;12.98;;
74849;SDS011;63397;47.480;19.238;2024-02-26T17:10:39;26.50;;;11.50;;
74849;SDS011;63397;47.480;19.238;2024-02-26T17:13:41;33.60;;;13.90;;
74849;SDS011;63397;47.480;19.238;2024-02-26T17:16:44;26.80;;;13.85;;
74849;SDS011;63397;47.480;19.238;2024-02-26T17:19:46;31.55;;;12.98;;
74849;SDS011;63397;47.480;19.238;2024-02-26T17:22:49;34.45;;;13.70;;
74849;SDS011;63397;47.480;19.238;2024-02-26T17:25:51;25.20;;;12.27;;
74849;SDS011;63397;47.480;19.238;2024-02-26T17:28:54;28.65;;;13.38;;
74849;SDS011;63397;47.480;19.238;2024-02-26T17:31:58;26.50;;;12.18;;
74849;SDS011;63397;47.480;19.238;2024-02-26T17:35:00;26.02;;;13.25;;
74849;SDS011;63397;47.480;19.238;2024-02-26T17:38:03;29.30;;;12.90;;
74849;SDS011;63397;47.480;19.238;2024-02-26T17:41:06;33.23;;;14.27;;
74849;SDS011;63397;47.480;19.238;2024-02-26T17:44:10;32.95;;;13.75;;
74849;SDS011;63397;47.480;19.238;2024-02-26T17:47:12;33.88;;;14.32;;
74849;SDS011;63397;47.480;19.238;2024-02-26T17:50:15;29.80;;;13.32;;
74849;SDS011;63397;47.480;19.238;2024-02-26T17:53:18;35.60;;;14.68;;
74849;SDS011;63397;47.480;19.238;2024-02-26T17:56:21;33.17;;;13.37;;